sensor_id;sensor_type;location;lat;lon;timestamp;temperature;humidity
26224;DHT22;14820;48.682;8.890;2024-03-23T00:55:34;7.30;99.90
26224;DHT22;14820;48.682;8.890;2024-03-23T00:58:00;7.40;99.90
26224;DHT22;14820;48.682;8.890;2024-03-23T01:00:25;7.40;99.90
26224;DHT22;14820;48.682;8.890;2024-03-23T01:02:51;7.40;99.90
26224;DHT22;14820;48.682;8.890;2024-03-23T01:05:17;7.50;99.90
26224;DHT22;14820;48.682;8.890;2024-03-23T01:07:42;7.50;99.90
26224;DHT22;14820;48.682;8.890;2024-03-23T01:10:08;7.50;99.90
26224;DHT22;14820;48.682;8.890;2024-03-23T01:12:34;7.50;99.90
26224;DHT22;14820;48.682;8.890;2024-03-23T01:15:00;7.60;99.90
26224;DHT22;14820;48.682;8.890;2024-03-23T01:17:25;7.50;99.90
26224;DHT22;14820;48.682;8.890;2024-03-23T01:19:51;7.50;99.90
26224;DHT22;14820;48.682;8.890;2024-03-23T01:22:16;7.40;99.90
26224;DHT22;14820;48.682;8.890;2024-03-23T01:24:42;7.40;99.90
26224;DHT22;14820;48.682;8.890;2024-03-23T01:27:08;7.50;99.90
26224;DHT22;14820;48.682;8.890;2024-03-23T01:29:34;7.50;99.90
26224;DHT22;14820;48.682;8.890;2024-03-23T01:32:00;7.60;99.90
26224;DHT22;14820;48.682;8.890;2024-03-23T01:34:25;7.60;99.90
26224;DHT22;14820;48.682;8.890;2024-03-23T01:36:52;7.60;99.90
26224;DHT22;14820;48.682;8.890;2024-03-23T01:39:17;7.50;99.90
26224;DHT22;14820;48.682;8.890;2024-03-23T01:41:43;7.50;99.90
26224;DHT22;14820;48.682;8.890;2024-03-23T01:44:09;7.50;99.90
26224;DHT22;14820;48.682;8.890;2024-03-23T01:46:36;7.50;99.90
26224;DHT22;14820;48.682;8.890;2024-03-23T01:49:04;7.50;99.90
26224;DHT22;14820;48.682;8.890;2024-03-23T01:51:30;7.40;99.90
26224;DHT22;14820;48.682;8.890;2024-03-23T01:53:56;7.50;99.90
26224;DHT22;14820;48.682;8.890;2024-03-23T01:56:22;7.50;99.90
26224;DHT22;14820;48.682;8.890;2024-03-23T01:58:48;7.50;99.90
26224;DHT22;14820;48.682;8.890;2024-03-23T02:01:14;7.50;99.90
26224;DHT22;14820;48.682;8.890;2024-03-23T02:03:39;7.50;99.90
26224;DHT22;14820;48.682;8.890;2024-03-23T02:06:05;7.50;99.90
26224;DHT22;14820;48.682;8.890;2024-03-23T02:08:32;7.50;99.90
26224;DHT22;14820;48.682;8.890;2024-03-23T02:10:58;7.60;99.90
26224;DHT22;14820;48.682;8.890;2024-03-23T02:13:24;7.60;99.90
26224;DHT22;14820;48.682;8.890;2024-03-23T02:15:50;7.60;99.90
26224;DHT22;14820;48.682;8.890;2024-03-23T02:18:15;7.60;99.90
26224;DHT22;14820;48.682;8.890;2024-03-23T02:20:41;7.60;99.90
26224;DHT22;14820;48.682;8.890;2024-03-23T02:23:14;7.70;99.90
26224;DHT22;14820;48.682;8.890;2024-03-23T02:25:40;7.70;99.90
26224;DHT22;14820;48.682;8.890;2024-03-23T02:28:05;7.70;99.90
26224;DHT22;14820;48.682;8.890;2024-03-23T02:30:31;7.80;99.90
26224;DHT22;14820;48.682;8.890;2024-03-23T02:32:57;7.70;99.90
26224;DHT22;14820;48.682;8.890;2024-03-23T02:35:22;7.80;99.90
26224;DHT22;14820;48.682;8.890;2024-03-23T02:37:48;7.80;99.90
26224;DHT22;14820;48.682;8.890;2024-03-23T02:40:17;7.80;99.90
26224;DHT22;14820;48.682;8.890;2024-03-23T02:42:43;7.90;99.90
26224;DHT22;14820;48.682;8.890;2024-03-23T02:45:09;7.90;99.90
26224;DHT22;14820;48.682;8.890;2024-03-23T02:47:35;7.90;99.90
26224;DHT22;14820;48.682;8.890;2024-03-23T02:50:00;7.90;99.90
26224;DHT22;14820;48.682;8.890;2024-03-23T02:52:26;7.90;99.90
26224;DHT22;14820;48.682;8.890;2024-03-23T02:54:52;7.90;99.90
26224;DHT22;14820;48.682;8.890;2024-03-23T02:57:18;7.90;99.90
26224;DHT22;14820;48.682;8.890;2024-03-23T02:59:43;7.80;99.90
26224;DHT22;14820;48.682;8.890;2024-03-23T03:02:09;7.80;99.90
26224;DHT22;14820;48.682;8.890;2024-03-23T03:04:35;7.80;99.90
26224;DHT22;14820;48.682;8.890;2024-03-23T03:07:01;7.80;99.90
26224;DHT22;14820;48.682;8.890;2024-03-23T03:09:26;7.70;99.90
26224;DHT22;14820;48.682;8.890;2024-03-23T03:11:52;7.70;99.90
26224;DHT22;14820;48.682;8.890;2024-03-23T03:14:18;7.50;99.90
26224;DHT22;14820;48.682;8.890;2024-03-23T03:16:43;7.50;99.90
26224;DHT22;14820;48.682;8.890;2024-03-23T03:19:09;7.50;99.90
26224;DHT22;14820;48.682;8.890;2024-03-23T03:21:36;7.50;99.90
26224;DHT22;14820;48.682;8.890;2024-03-23T03:24:02;7.50;99.90
26224;DHT22;14820;48.682;8.890;2024-03-23T03:26:28;7.40;99.90
26224;DHT22;14820;48.682;8.890;2024-03-23T03:28:54;7.50;99.90
26224;DHT22;14820;48.682;8.890;2024-03-23T03:31:20;7.50;99.90
26224;DHT22;14820;48.682;8.890;2024-03-23T03:33:46;7.60;99.90
26224;DHT22;14820;48.682;8.890;2024-03-23T03:36:12;7.70;99.90
26224;DHT22;14820;48.682;8.890;2024-03-23T03:38:37;7.80;99.90
26224;DHT22;14820;48.682;8.890;2024-03-23T03:41:06;7.90;99.90
26224;DHT22;14820;48.682;8.890;2024-03-23T03:43:32;8.10;99.90
26224;DHT22;14820;48.682;8.890;2024-03-23T03:45:59;8.20;99.90
26224;DHT22;14820;48.682;8.890;2024-03-23T03:48:25;8.20;99.90
26224;DHT22;14820;48.682;8.890;2024-03-23T03:50:52;8.30;99.90
26224;DHT22;14820;48.682;8.890;2024-03-23T03:53:18;8.40;99.90
26224;DHT22;14820;48.682;8.890;2024-03-23T03:55:44;8.40;99.90
26224;DHT22;14820;48.682;8.890;2024-03-23T03:58:09;8.40;99.90
26224;DHT22;14820;48.682;8.890;2024-03-23T04:00:35;8.40;99.90
26224;DHT22;14820;48.682;8.890;2024-03-23T04:03:01;8.40;99.90
26224;DHT22;14820;48.682;8.890;2024-03-23T04:05:27;8.40;99.90
26224;DHT22;14820;48.682;8.890;2024-03-23T04:07:53;8.30;99.90
26224;DHT22;14820;48.682;8.890;2024-03-23T04:10:19;8.30;99.90
26224;DHT22;14820;48.682;8.890;2024-03-23T04:12:45;8.30;99.90
26224;DHT22;14820;48.682;8.890;2024-03-23T04:15:11;8.30;99.90
26224;DHT22;14820;48.682;8.890;2024-03-23T04:17:37;8.30;99.90
26224;DHT22;14820;48.682;8.890;2024-03-23T04:20:03;8.40;99.90
26224;DHT22;14820;48.682;8.890;2024-03-23T04:22:33;8.40;99.90
26224;DHT22;14820;48.682;8.890;2024-03-23T04:24:59;8.50;99.90
26224;DHT22;14820;48.682;8.890;2024-03-23T04:27:25;8.60;99.90
26224;DHT22;14820;48.682;8.890;2024-03-23T04:29:51;8.70;99.90
26224;DHT22;14820;48.682;8.890;2024-03-23T04:32:18;8.70;99.90
26224;DHT22;14820;48.682;8.890;2024-03-23T04:34:44;8.70;99.90
26224;DHT22;14820;48.682;8.890;2024-03-23T04:37:11;8.80;99.90
26224;DHT22;14820;48.682;8.890;2024-03-23T04:39:37;8.80;99.90
26224;DHT22;14820;48.682;8.890;2024-03-23T04:42:03;8.80;99.90
26224;DHT22;14820;48.682;8.890;2024-03-23T04:44:29;8.70;99.90
26224;DHT22;14820;48.682;8.890;2024-03-23T04:46:59;8.60;99.90
26224;DHT22;14820;48.682;8.890;2024-03-23T04:49:25;8.70;99.90
26224;DHT22;14820;48.682;8.890;2024-03-23T04:51:51;8.80;99.90
26224;DHT22;14820;48.682;8.890;2024-03-23T04:54:16;9.00;99.90
26224;DHT22;14820;48.682;8.890;2024-03-23T04:56:42;9.00;99.90
26224;DHT22;14820;48.682;8.890;2024-03-23T04:59:08;9.10;99.90
26224;DHT22;14820;48.682;8.890;2024-03-23T05:01:34;9.10;99.90
26224;DHT22;14820;48.682;8.890;2024-03-23T05:04:00;9.10;99.90
26224;DHT22;14820;48.682;8.890;2024-03-23T05:06:27;9.10;99.90
26224;DHT22;14820;48.682;8.890;2024-03-23T05:08:52;9.10;99.90
26224;DHT22;14820;48.682;8.890;2024-03-23T05:11:18;9.00;99.90
26224;DHT22;14820;48.682;8.890;2024-03-23T05:13:45;9.10;99.90
26224;DHT22;14820;48.682;8.890;2024-03-23T05:16:10;9.00;99.90
26224;DHT22;14820;48.682;8.890;2024-03-23T05:18:36;9.00;99.90
26224;DHT22;14820;48.682;8.890;2024-03-23T05:21:02;9.00;99.90
26224;DHT22;14820;48.682;8.890;2024-03-23T05:23:28;9.00;99.90
26224;DHT22;14820;48.682;8.890;2024-03-23T05:25:54;8.90;99.90
26224;DHT22;14820;48.682;8.890;2024-03-23T05:28:21;8.90;99.90
26224;DHT22;14820;48.682;8.890;2024-03-23T05:30:53;8.90;99.90
26224;DHT22;14820;48.682;8.890;2024-03-23T05:33:20;8.90;99.90
26224;DHT22;14820;48.682;8.890;2024-03-23T05:35:46;8.90;99.90
26224;DHT22;14820;48.682;8.890;2024-03-23T05:38:13;8.80;99.90
26224;DHT22;14820;48.682;8.890;2024-03-23T05:40:39;8.80;99.90
26224;DHT22;14820;48.682;8.890;2024-03-23T05:43:08;8.80;99.90
26224;DHT22;14820;48.682;8.890;2024-03-23T05:45:34;8.80;99.90
26224;DHT22;14820;48.682;8.890;2024-03-23T05:48:00;8.70;99.90
26224;DHT22;14820;48.682;8.890;2024-03-23T05:50:26;8.70;99.90
26224;DHT22;14820;48.682;8.890;2024-03-23T05:52:52;8.70;99.90
26224;DHT22;14820;48.682;8.890;2024-03-23T05:55:17;8.70;99.90
26224;DHT22;14820;48.682;8.890;2024-03-23T05:57:43;8.60;99.90
26224;DHT22;14820;48.682;8.890;2024-03-23T06:00:09;8.50;99.90
26224;DHT22;14820;48.682;8.890;2024-03-23T06:02:42;8.50;99.90
26224;DHT22;14820;48.682;8.890;2024-03-23T06:05:12;8.40;99.90
26224;DHT22;14820;48.682;8.890;2024-03-23T06:07:38;8.30;99.90
26224;DHT22;14820;48.682;8.890;2024-03-23T06:10:05;8.30;99.90
26224;DHT22;14820;48.682;8.890;2024-03-23T06:12:31;8.20;99.90
26224;DHT22;14820;48.682;8.890;2024-03-23T06:14:57;8.20;99.90
26224;DHT22;14820;48.682;8.890;2024-03-23T06:17:23;8.10;99.90
26224;DHT22;14820;48.682;8.890;2024-03-23T06:19:48;8.00;99.90
26224;DHT22;14820;48.682;8.890;2024-03-23T06:22:14;8.00;99.90
26224;DHT22;14820;48.682;8.890;2024-03-23T06:24:40;7.90;99.90
26224;DHT22;14820;48.682;8.890;2024-03-23T06:27:06;7.90;99.90
26224;DHT22;14820;48.682;8.890;2024-03-23T06:29:32;7.80;99.90
26224;DHT22;14820;48.682;8.890;2024-03-23T06:31:58;7.80;99.90
26224;DHT22;14820;48.682;8.890;2024-03-23T06:34:24;7.80;99.90
26224;DHT22;14820;48.682;8.890;2024-03-23T06:36:49;7.80;99.90
26224;DHT22;14820;48.682;8.890;2024-03-23T06:39:18;7.80;99.90
26224;DHT22;14820;48.682;8.890;2024-03-23T06:41:52;7.80;99.90
26224;DHT22;14820;48.682;8.890;2024-03-23T06:44:18;7.70;99.90
26224;DHT22;14820;48.682;8.890;2024-03-23T06:46:45;7.70;99.90
26224;DHT22;14820;48.682;8.890;2024-03-23T06:49:11;7.70;99.90
26224;DHT22;14820;48.682;8.890;2024-03-23T06:51:37;7.60;99.90
26224;DHT22;14820;48.682;8.890;2024-03-23T06:54:03;7.60;99.90
26224;DHT22;14820;48.682;8.890;2024-03-23T06:56:30;7.60;99.90
26224;DHT22;14820;48.682;8.890;2024-03-23T06:58:56;7.60;99.90
26224;DHT22;14820;48.682;8.890;2024-03-23T07:01:22;7.60;99.90
26224;DHT22;14820;48.682;8.890;2024-03-23T07:03:48;7.60;99.90
26224;DHT22;14820;48.682;8.890;2024-03-23T07:06:13;7.50;99.90
26224;DHT22;14820;48.682;8.890;2024-03-23T07:08:39;7.50;99.90
26224;DHT22;14820;48.682;8.890;2024-03-23T07:11:05;7.50;99.90
26224;DHT22;14820;48.682;8.890;2024-03-23T07:13:31;7.60;99.90
26224;DHT22;14820;48.682;8.890;2024-03-23T07:15:57;7.60;99.90
26224;DHT22;14820;48.682;8.890;2024-03-23T07:18:24;7.60;99.90
26224;DHT22;14820;48.682;8.890;2024-03-23T07:20:56;7.60;99.90
26224;DHT22;14820;48.682;8.890;2024-03-23T07:23:22;7.50;99.90
26224;DHT22;14820;48.682;8.890;2024-03-23T07:25:58;7.60;99.90
26224;DHT22;14820;48.682;8.890;2024-03-23T07:28:23;7.50;99.90
26224;DHT22;14820;48.682;8.890;2024-03-23T07:31:04;7.40;99.90
26224;DHT22;14820;48.682;8.890;2024-03-23T07:33:30;7.40;99.90
26224;DHT22;14820;48.682;8.890;2024-03-23T07:35:56;7.40;99.90
26224;DHT22;14820;48.682;8.890;2024-03-23T07:38:22;7.40;99.90
26224;DHT22;14820;48.682;8.890;2024-03-23T07:40:47;7.30;99.90
26224;DHT22;14820;48.682;8.890;2024-03-23T07:43:20;7.30;99.90
26224;DHT22;14820;48.682;8.890;2024-03-23T07:45:54;7.30;99.90
26224;DHT22;14820;48.682;8.890;2024-03-23T07:48:21;7.30;99.90
26224;DHT22;14820;48.682;8.890;2024-03-23T07:51:03;7.30;99.90
26224;DHT22;14820;48.682;8.890;2024-03-23T07:53:30;7.30;99.90
26224;DHT22;14820;48.682;8.890;2024-03-23T07:58:26;7.40;99.90
26224;DHT22;14820;48.682;8.890;2024-03-23T08:00:53;7.30;99.90
26224;DHT22;14820;48.682;8.890;2024-03-23T08:03:18;7.30;99.90
26224;DHT22;14820;48.682;8.890;2024-03-23T08:05:44;7.30;99.90
26224;DHT22;14820;48.682;8.890;2024-03-23T08:08:10;7.20;99.90
26224;DHT22;14820;48.682;8.890;2024-03-23T08:10:37;7.20;99.90
26224;DHT22;14820;48.682;8.890;2024-03-23T08:13:02;7.20;99.90
26224;DHT22;14820;48.682;8.890;2024-03-23T08:15:30;7.20;99.90
26224;DHT22;14820;48.682;8.890;2024-03-23T08:17:59;7.30;99.90
26224;DHT22;14820;48.682;8.890;2024-03-23T08:20:25;7.40;99.90
26224;DHT22;14820;48.682;8.890;2024-03-23T08:22:50;7.40;99.90
26224;DHT22;14820;48.682;8.890;2024-03-23T08:25:16;7.50;99.90
26224;DHT22;14820;48.682;8.890;2024-03-23T08:27:44;7.50;99.90
26224;DHT22;14820;48.682;8.890;2024-03-23T08:30:10;7.50;99.90
26224;DHT22;14820;48.682;8.890;2024-03-23T08:32:36;7.40;99.90
26224;DHT22;14820;48.682;8.890;2024-03-23T08:35:02;7.40;99.90
26224;DHT22;14820;48.682;8.890;2024-03-23T08:37:28;7.40;99.90
26224;DHT22;14820;48.682;8.890;2024-03-23T08:39:53;7.30;99.90
26224;DHT22;14820;48.682;8.890;2024-03-23T08:42:19;7.30;99.90
26224;DHT22;14820;48.682;8.890;2024-03-23T08:44:46;7.30;99.90
26224;DHT22;14820;48.682;8.890;2024-03-23T08:47:15;7.30;99.90
26224;DHT22;14820;48.682;8.890;2024-03-23T08:49:41;7.30;99.90
26224;DHT22;14820;48.682;8.890;2024-03-23T08:52:07;7.30;99.90
26224;DHT22;14820;48.682;8.890;2024-03-23T08:54:32;7.20;99.90
26224;DHT22;14820;48.682;8.890;2024-03-23T08:56:58;7.30;99.90
26224;DHT22;14820;48.682;8.890;2024-03-23T08:59:24;7.30;99.90
26224;DHT22;14820;48.682;8.890;2024-03-23T09:01:50;7.20;99.90
26224;DHT22;14820;48.682;8.890;2024-03-23T09:04:15;7.00;99.90
26224;DHT22;14820;48.682;8.890;2024-03-23T09:06:44;6.90;99.90
26224;DHT22;14820;48.682;8.890;2024-03-23T09:09:10;7.00;99.90
26224;DHT22;14820;48.682;8.890;2024-03-23T09:11:35;7.10;99.90
26224;DHT22;14820;48.682;8.890;2024-03-23T09:14:03;7.30;99.90
26224;DHT22;14820;48.682;8.890;2024-03-23T09:16:29;7.40;99.90
26224;DHT22;14820;48.682;8.890;2024-03-23T09:18:54;7.40;99.90
26224;DHT22;14820;48.682;8.890;2024-03-23T09:21:20;7.50;99.90
26224;DHT22;14820;48.682;8.890;2024-03-23T09:23:46;7.60;99.90
26224;DHT22;14820;48.682;8.890;2024-03-23T09:26:12;7.70;99.90
26224;DHT22;14820;48.682;8.890;2024-03-23T09:28:38;7.70;99.90
26224;DHT22;14820;48.682;8.890;2024-03-23T09:31:05;7.70;99.90
26224;DHT22;14820;48.682;8.890;2024-03-23T09:33:31;7.60;99.90
26224;DHT22;14820;48.682;8.890;2024-03-23T09:35:57;7.60;99.90
26224;DHT22;14820;48.682;8.890;2024-03-23T09:38:23;7.60;99.90
26224;DHT22;14820;48.682;8.890;2024-03-23T09:40:52;7.50;99.90
26224;DHT22;14820;48.682;8.890;2024-03-23T09:43:19;7.50;99.90
26224;DHT22;14820;48.682;8.890;2024-03-23T09:45:45;7.50;99.90
26224;DHT22;14820;48.682;8.890;2024-03-23T09:48:11;7.50;99.90
26224;DHT22;14820;48.682;8.890;2024-03-23T09:50:42;7.50;99.90
26224;DHT22;14820;48.682;8.890;2024-03-23T09:53:12;7.70;99.90
26224;DHT22;14820;48.682;8.890;2024-03-23T09:55:39;7.90;99.90
26224;DHT22;14820;48.682;8.890;2024-03-23T09:58:05;8.00;99.90
26224;DHT22;14820;48.682;8.890;2024-03-23T10:00:35;8.10;99.90
26224;DHT22;14820;48.682;8.890;2024-03-23T10:03:01;8.10;99.90
26224;DHT22;14820;48.682;8.890;2024-03-23T10:05:30;8.20;99.90
26224;DHT22;14820;48.682;8.890;2024-03-23T10:10:43;8.30;99.90
26224;DHT22;14820;48.682;8.890;2024-03-23T10:13:09;8.40;99.90
26224;DHT22;14820;48.682;8.890;2024-03-23T10:15:36;8.40;99.90
26224;DHT22;14820;48.682;8.890;2024-03-23T10:18:18;8.50;99.90
26224;DHT22;14820;48.682;8.890;2024-03-23T10:20:50;8.40;99.90
26224;DHT22;14820;48.682;8.890;2024-03-23T10:23:16;8.30;99.90
26224;DHT22;14820;48.682;8.890;2024-03-23T10:25:43;8.30;99.90
26224;DHT22;14820;48.682;8.890;2024-03-23T10:28:08;8.20;99.90
26224;DHT22;14820;48.682;8.890;2024-03-23T10:30:37;8.20;99.90
26224;DHT22;14820;48.682;8.890;2024-03-23T10:33:09;8.10;99.90
26224;DHT22;14820;48.682;8.890;2024-03-23T10:35:37;8.00;99.90
26224;DHT22;14820;48.682;8.890;2024-03-23T10:38:05;7.90;99.90
26224;DHT22;14820;48.682;8.890;2024-03-23T10:40:31;7.60;99.90
26224;DHT22;14820;48.682;8.890;2024-03-23T10:42:58;7.30;99.90
26224;DHT22;14820;48.682;8.890;2024-03-23T10:45:25;6.80;99.90
26224;DHT22;14820;48.682;8.890;2024-03-23T10:47:51;6.40;99.90
26224;DHT22;14820;48.682;8.890;2024-03-23T10:50:17;5.80;99.90
26224;DHT22;14820;48.682;8.890;2024-03-23T10:52:46;5.60;99.90
26224;DHT22;14820;48.682;8.890;2024-03-23T10:55:14;5.70;99.90
26224;DHT22;14820;48.682;8.890;2024-03-23T10:57:48;5.70;99.90
26224;DHT22;14820;48.682;8.890;2024-03-23T11:00:15;5.80;99.90
26224;DHT22;14820;48.682;8.890;2024-03-23T11:02:41;5.80;99.90
26224;DHT22;14820;48.682;8.890;2024-03-23T11:07:52;6.10;99.90
26224;DHT22;14820;48.682;8.890;2024-03-23T11:10:29;6.30;99.90
26224;DHT22;14820;48.682;8.890;2024-03-23T11:13:21;6.50;99.90
26224;DHT22;14820;48.682;8.890;2024-03-23T11:15:47;6.70;99.90
26224;DHT22;14820;48.682;8.890;2024-03-23T11:18:20;7.00;99.90
26224;DHT22;14820;48.682;8.890;2024-03-23T11:20:46;7.20;99.90
26224;DHT22;14820;48.682;8.890;2024-03-23T11:23:27;7.20;99.90
26224;DHT22;14820;48.682;8.890;2024-03-23T11:25:53;7.30;99.90
26224;DHT22;14820;48.682;8.890;2024-03-23T11:28:19;7.40;99.90
26224;DHT22;14820;48.682;8.890;2024-03-23T11:30:44;7.30;99.90
26224;DHT22;14820;48.682;8.890;2024-03-23T11:33:10;7.30;99.90
26224;DHT22;14820;48.682;8.890;2024-03-23T11:35:40;7.50;99.90
26224;DHT22;14820;48.682;8.890;2024-03-23T11:38:12;7.60;99.90
26224;DHT22;14820;48.682;8.890;2024-03-23T11:40:40;7.80;99.90
26224;DHT22;14820;48.682;8.890;2024-03-23T11:43:12;7.80;99.90
26224;DHT22;14820;48.682;8.890;2024-03-23T11:45:46;7.80;99.90
26224;DHT22;14820;48.682;8.890;2024-03-23T11:48:16;7.80;99.90
26224;DHT22;14820;48.682;8.890;2024-03-23T11:50:55;7.80;99.90
26224;DHT22;14820;48.682;8.890;2024-03-23T11:53:24;7.90;99.90
26224;DHT22;14820;48.682;8.890;2024-03-23T11:55:56;8.10;99.90
26224;DHT22;14820;48.682;8.890;2024-03-23T11:58:24;8.20;99.90
26224;DHT22;14820;48.682;8.890;2024-03-23T12:00:58;8.40;99.90
26224;DHT22;14820;48.682;8.890;2024-03-23T12:03:24;8.30;99.90
26224;DHT22;14820;48.682;8.890;2024-03-23T12:06:00;8.20;99.90
26224;DHT22;14820;48.682;8.890;2024-03-23T12:11:06;8.00;99.90
26224;DHT22;14820;48.682;8.890;2024-03-23T12:13:33;8.10;99.90
26224;DHT22;14820;48.682;8.890;2024-03-23T12:16:17;8.10;99.90
26224;DHT22;14820;48.682;8.890;2024-03-23T12:18:44;8.20;99.90
26224;DHT22;14820;48.682;8.890;2024-03-23T12:21:11;8.30;99.90
26224;DHT22;14820;48.682;8.890;2024-03-23T12:23:39;8.40;99.90
26224;DHT22;14820;48.682;8.890;2024-03-23T12:26:05;8.50;99.90
26224;DHT22;14820;48.682;8.890;2024-03-23T12:28:32;8.60;99.90
26224;DHT22;14820;48.682;8.890;2024-03-23T12:30:59;8.50;99.90
26224;DHT22;14820;48.682;8.890;2024-03-23T12:33:25;8.70;99.90
26224;DHT22;14820;48.682;8.890;2024-03-23T12:35:51;8.80;99.90
26224;DHT22;14820;48.682;8.890;2024-03-23T12:38:18;8.80;99.90
26224;DHT22;14820;48.682;8.890;2024-03-23T12:40:50;8.60;99.90
26224;DHT22;14820;48.682;8.890;2024-03-23T12:43:17;8.50;99.90
26224;DHT22;14820;48.682;8.890;2024-03-23T12:45:49;8.40;99.90
26224;DHT22;14820;48.682;8.890;2024-03-23T12:48:15;8.30;99.90
26224;DHT22;14820;48.682;8.890;2024-03-23T12:50:40;8.40;99.90
26224;DHT22;14820;48.682;8.890;2024-03-23T12:53:06;8.40;99.90
26224;DHT22;14820;48.682;8.890;2024-03-23T12:55:32;8.40;99.90
26224;DHT22;14820;48.682;8.890;2024-03-23T12:58:00;8.40;99.90
26224;DHT22;14820;48.682;8.890;2024-03-23T13:00:25;8.50;99.90
26224;DHT22;14820;48.682;8.890;2024-03-23T13:02:51;8.60;99.90
26224;DHT22;14820;48.682;8.890;2024-03-23T13:05:17;8.60;99.90
26224;DHT22;14820;48.682;8.890;2024-03-23T13:07:42;8.40;99.90
26224;DHT22;14820;48.682;8.890;2024-03-23T13:10:08;8.10;99.90
26224;DHT22;14820;48.682;8.890;2024-03-23T13:12:34;7.90;99.90
26224;DHT22;14820;48.682;8.890;2024-03-23T13:15:00;7.30;99.90
26224;DHT22;14820;48.682;8.890;2024-03-23T13:17:26;7.00;99.90
26224;DHT22;14820;48.682;8.890;2024-03-23T13:19:53;6.80;99.90
26224;DHT22;14820;48.682;8.890;2024-03-23T13:22:19;7.00;99.90
26224;DHT22;14820;48.682;8.890;2024-03-23T13:24:44;7.30;99.90
26224;DHT22;14820;48.682;8.890;2024-03-23T13:27:10;7.60;99.90
26224;DHT22;14820;48.682;8.890;2024-03-23T13:29:36;7.80;99.90
26224;DHT22;14820;48.682;8.890;2024-03-23T13:32:03;7.90;99.90
26224;DHT22;14820;48.682;8.890;2024-03-23T13:34:29;8.10;99.90
26224;DHT22;14820;48.682;8.890;2024-03-23T13:36:55;8.20;99.90
26224;DHT22;14820;48.682;8.890;2024-03-23T13:39:23;8.30;99.90
26224;DHT22;14820;48.682;8.890;2024-03-23T13:41:49;8.40;99.90
26224;DHT22;14820;48.682;8.890;2024-03-23T13:44:14;8.50;99.90
26224;DHT22;14820;48.682;8.890;2024-03-23T13:46:42;8.40;99.90
26224;DHT22;14820;48.682;8.890;2024-03-23T13:49:32;8.40;99.90
26224;DHT22;14820;48.682;8.890;2024-03-23T13:51:59;8.30;99.90
26224;DHT22;14820;48.682;8.890;2024-03-23T13:54:25;8.20;99.90
26224;DHT22;14820;48.682;8.890;2024-03-23T13:56:52;8.10;99.90
26224;DHT22;14820;48.682;8.890;2024-03-23T13:59:18;8.00;99.90
26224;DHT22;14820;48.682;8.890;2024-03-23T14:01:44;7.60;99.90
26224;DHT22;14820;48.682;8.890;2024-03-23T14:04:13;7.50;99.90
26224;DHT22;14820;48.682;8.890;2024-03-23T14:06:39;7.60;99.90
26224;DHT22;14820;48.682;8.890;2024-03-23T14:09:05;7.80;99.90
26224;DHT22;14820;48.682;8.890;2024-03-23T14:11:35;7.90;99.90
26224;DHT22;14820;48.682;8.890;2024-03-23T14:14:02;7.80;99.90
26224;DHT22;14820;48.682;8.890;2024-03-23T14:16:29;7.60;99.90
26224;DHT22;14820;48.682;8.890;2024-03-23T14:18:55;7.50;99.90
26224;DHT22;14820;48.682;8.890;2024-03-23T14:21:20;7.20;99.90
26224;DHT22;14820;48.682;8.890;2024-03-23T14:23:46;7.00;99.90
26224;DHT22;14820;48.682;8.890;2024-03-23T14:26:12;7.10;99.90
26224;DHT22;14820;48.682;8.890;2024-03-23T14:28:37;7.30;99.90
26224;DHT22;14820;48.682;8.890;2024-03-23T14:31:03;7.50;99.90
26224;DHT22;14820;48.682;8.890;2024-03-23T14:33:36;7.60;99.90
26224;DHT22;14820;48.682;8.890;2024-03-23T14:36:03;7.50;99.90
26224;DHT22;14820;48.682;8.890;2024-03-23T14:38:29;7.40;99.90
26224;DHT22;14820;48.682;8.890;2024-03-23T14:40:58;7.30;99.90
26224;DHT22;14820;48.682;8.890;2024-03-23T14:43:24;7.10;99.90
26224;DHT22;14820;48.682;8.890;2024-03-23T14:46:07;7.20;99.90
26224;DHT22;14820;48.682;8.890;2024-03-23T14:48:33;7.10;99.90
26224;DHT22;14820;48.682;8.890;2024-03-23T14:50:59;7.10;99.90
26224;DHT22;14820;48.682;8.890;2024-03-23T14:53:26;6.70;99.90
26224;DHT22;14820;48.682;8.890;2024-03-23T14:55:55;6.30;99.90
26224;DHT22;14820;48.682;8.890;2024-03-23T14:58:22;5.90;99.90
26224;DHT22;14820;48.682;8.890;2024-03-23T15:00:49;5.90;99.90
26224;DHT22;14820;48.682;8.890;2024-03-23T15:03:15;6.20;99.90
26224;DHT22;14820;48.682;8.890;2024-03-23T15:05:41;6.40;99.90
26224;DHT22;14820;48.682;8.890;2024-03-23T15:08:07;6.70;99.90
26224;DHT22;14820;48.682;8.890;2024-03-23T15:10:35;7.00;99.90
26224;DHT22;14820;48.682;8.890;2024-03-23T15:13:01;7.10;99.90
26224;DHT22;14820;48.682;8.890;2024-03-23T15:15:27;7.20;99.90
26224;DHT22;14820;48.682;8.890;2024-03-23T15:17:53;7.50;99.90
26224;DHT22;14820;48.682;8.890;2024-03-23T15:20:19;7.80;99.90
26224;DHT22;14820;48.682;8.890;2024-03-23T15:22:44;8.00;99.90
26224;DHT22;14820;48.682;8.890;2024-03-23T15:25:10;8.10;99.90
26224;DHT22;14820;48.682;8.890;2024-03-23T15:27:37;8.10;99.90
26224;DHT22;14820;48.682;8.890;2024-03-23T15:30:02;8.10;99.90
26224;DHT22;14820;48.682;8.890;2024-03-23T15:32:28;7.90;99.90
26224;DHT22;14820;48.682;8.890;2024-03-23T15:34:54;7.90;99.90
26224;DHT22;14820;48.682;8.890;2024-03-23T15:37:19;7.70;99.90
26224;DHT22;14820;48.682;8.890;2024-03-23T15:39:45;7.50;99.90
26224;DHT22;14820;48.682;8.890;2024-03-23T15:42:11;7.30;99.90
26224;DHT22;14820;48.682;8.890;2024-03-23T15:44:36;7.10;99.90
26224;DHT22;14820;48.682;8.890;2024-03-23T15:47:02;6.90;99.90
26224;DHT22;14820;48.682;8.890;2024-03-23T15:49:28;6.50;99.90
26224;DHT22;14820;48.682;8.890;2024-03-23T15:51:53;6.20;99.90
26224;DHT22;14820;48.682;8.890;2024-03-23T15:54:19;6.20;99.90
26224;DHT22;14820;48.682;8.890;2024-03-23T15:56:47;6.20;99.90
26224;DHT22;14820;48.682;8.890;2024-03-23T15:59:12;6.40;99.90
26224;DHT22;14820;48.682;8.890;2024-03-23T16:01:38;6.70;99.90
26224;DHT22;14820;48.682;8.890;2024-03-23T16:04:04;6.70;99.90
26224;DHT22;14820;48.682;8.890;2024-03-23T16:06:30;6.60;99.90
26224;DHT22;14820;48.682;8.890;2024-03-23T16:08:55;6.50;99.90
26224;DHT22;14820;48.682;8.890;2024-03-23T16:11:21;6.40;99.90
26224;DHT22;14820;48.682;8.890;2024-03-23T16:13:46;6.40;99.90
26224;DHT22;14820;48.682;8.890;2024-03-23T16:16:12;6.50;99.90
26224;DHT22;14820;48.682;8.890;2024-03-23T16:18:39;6.40;99.90
26224;DHT22;14820;48.682;8.890;2024-03-23T16:21:06;6.50;99.90
26224;DHT22;14820;48.682;8.890;2024-03-23T16:23:32;6.80;99.90
26224;DHT22;14820;48.682;8.890;2024-03-23T16:25:58;7.00;99.90
26224;DHT22;14820;48.682;8.890;2024-03-23T16:28:44;7.20;99.90
26224;DHT22;14820;48.682;8.890;2024-03-23T16:31:11;7.40;99.90
26224;DHT22;14820;48.682;8.890;2024-03-23T16:33:37;7.20;99.90
26224;DHT22;14820;48.682;8.890;2024-03-23T16:36:04;7.10;99.90
26224;DHT22;14820;48.682;8.890;2024-03-23T16:38:31;7.10;99.90
26224;DHT22;14820;48.682;8.890;2024-03-23T16:41:02;7.10;99.90
26224;DHT22;14820;48.682;8.890;2024-03-23T16:43:28;7.10;99.90
26224;DHT22;14820;48.682;8.890;2024-03-23T16:46:03;7.20;99.90
26224;DHT22;14820;48.682;8.890;2024-03-23T16:48:32;7.10;99.90